TimeCST,TemperatureF,Dew PointF,Humidity,Sea Level PressureIn,VisibilityMPH,Wind Direction,Wind SpeedMPH,Gust SpeedMPH,PrecipitationIn,Events,Conditions,WindDirDegrees,DateUTC
12:15 AM,34.2,26.6,74,30.11,10.0,NNW,15.0,-,N/A,,Overcast,340,2013-02-28 06:15:00
12:35 AM,34.2,26.4,73,30.11,10.0,NNW,15.0,-,N/A,,Overcast,340,2013-02-28 06:35:00
12:55 AM,33.8,25.7,72,30.11,10.0,NNW,16.1,-,N/A,,Overcast,340,2013-02-28 06:55:00
1:15 AM,33.3,25.7,74,30.11,10.0,NNW,15.0,-,N/A,,Overcast,340,2013-02-28 07:15:00
1:35 AM,33.3,25.5,73,30.11,10.0,North,17.3,24.2,N/A,,Overcast,360,2013-02-28 07:35:00
1:55 AM,33.1,25.3,73,30.11,10.0,North,15.0,21.9,N/A,,Overcast,350,2013-02-28 07:55:00
2:15 AM,33.3,25.2,72,30.11,10.0,NNW,20.7,24.2,N/A,,Overcast,340,2013-02-28 08:15:00
2:35 AM,32.9,25.0,73,30.12,10.0,NNW,16.1,-,N/A,,Overcast,340,2013-02-28 08:35:00
2:55 AM,32.5,24.8,73,30.12,10.0,NNW,15.0,-,N/A,,Overcast,330,2013-02-28 08:55:00
3:15 AM,32.2,24.6,74,30.12,10.0,NNW,17.3,-,N/A,,Overcast,330,2013-02-28 09:15:00
3:35 AM,32.0,24.8,75,30.12,10.0,North,16.1,21.9,N/A,,Overcast,350,2013-02-28 09:35:00
3:55 AM,32.0,24.1,73,30.12,10.0,NNW,18.4,-,N/A,,Overcast,340,2013-02-28 09:55:00
4:15 AM,32.0,24.8,75,30.12,10.0,NNW,17.3,21.9,N/A,,Overcast,340,2013-02-28 10:15:00
4:35 AM,31.1,24.4,76,30.14,10.0,North,15.0,-,N/A,,Overcast,360,2013-02-28 10:35:00
4:55 AM,30.6,23.9,76,30.14,10.0,North,12.7,-,N/A,,Overcast,10,2013-02-28 10:55:00
5:15 AM,30.2,24.1,78,30.15,10.0,North,13.8,-,N/A,,Overcast,360,2013-02-28 11:15:00
5:35 AM,30.4,24.1,77,30.16,10.0,North,13.8,-,N/A,,Overcast,350,2013-02-28 11:35:00
5:55 AM,30.4,23.5,76,30.16,10.0,NNW,20.7,-,N/A,,Overcast,340,2013-02-28 11:55:00
6:15 AM,30.0,23.4,76,30.17,10.0,North,19.6,-,N/A,,Overcast,350,2013-02-28 12:15:00
6:35 AM,30.0,23.5,77,30.16,10.0,North,18.4,23.0,N/A,,Overcast,360,2013-02-28 12:35:00
6:55 AM,29.8,23.5,77,30.17,10.0,North,18.4,-,N/A,,Overcast,350,2013-02-28 12:55:00
7:15 AM,29.7,23.2,77,30.17,10.0,NNW,16.1,-,N/A,,Overcast,340,2013-02-28 13:15:00
7:35 AM,29.7,23.0,76,30.18,10.0,North,17.3,24.2,N/A,,Overcast,350,2013-02-28 13:35:00
7:55 AM,30.2,23.0,75,30.18,10.0,North,16.1,-,N/A,,Overcast,350,2013-02-28 13:55:00
8:15 AM,29.7,23.0,76,30.19,10.0,North,17.3,20.7,N/A,,Overcast,350,2013-02-28 14:15:00
8:35 AM,29.8,23.0,76,30.19,10.0,North,12.7,-,N/A,,Overcast,350,2013-02-28 14:35:00
8:55 AM,30.0,23.5,77,30.20,10.0,NNW,15.0,-,N/A,,Overcast,340,2013-02-28 14:55:00
9:15 AM,30.0,23.5,77,30.20,10.0,NNW,16.1,-,N/A,,Overcast,340,2013-02-28 15:15:00
9:35 AM,30.0,23.4,76,30.20,10.0,NNW,16.1,-,N/A,,Overcast,340,2013-02-28 15:35:00
9:55 AM,30.4,23.0,74,30.20,10.0,NNW,18.4,-,N/A,,Overcast,330,2013-02-28 15:55:00
10:15 AM,30.7,23.0,73,30.21,10.0,North,16.1,-,N/A,,Overcast,350,2013-02-28 16:15:00
10:35 AM,31.1,23.0,72,30.21,10.0,North,17.3,-,N/A,,Overcast,360,2013-02-28 16:35:00
10:55 AM,31.6,23.4,71,30.21,10.0,NNW,13.8,17.3,N/A,,Overcast,340,2013-02-28 16:55:00
11:15 AM,32.0,23.5,71,30.21,10.0,NNW,13.8,-,N/A,,Overcast,340,2013-02-28 17:15:00
11:35 AM,32.0,23.5,71,30.22,10.0,NNW,15.0,-,N/A,,Overcast,330,2013-02-28 17:35:00
11:55 AM,32.7,22.8,67,30.22,10.0,North,18.4,-,N/A,,Overcast,350,2013-02-28 17:55:00
12:15 PM,32.4,23.5,70,30.22,10.0,NNW,17.3,-,N/A,,Overcast,330,2013-02-28 18:15:00
12:35 PM,32.4,23.7,70,30.22,10.0,NNW,16.1,20.7,N/A,,Overcast,340,2013-02-28 18:35:00
12:55 PM,32.9,23.5,68,30.21,10.0,NNW,12.7,-,N/A,,Overcast,340,2013-02-28 18:55:00
1:15 PM,33.6,22.6,64,30.20,10.0,NNW,15.0,-,N/A,,Overcast,340,2013-02-28 19:15:00
1:35 PM,34.0,22.3,62,30.20,10.0,North,15.0,20.7,N/A,,Overcast,350,2013-02-28 19:35:00
1:55 PM,35.1,22.1,59,30.19,10.0,NNW,15.0,19.6,N/A,,Overcast,340,2013-02-28 19:55:00
2:15 PM,34.9,21.6,58,30.18,10.0,North,16.1,-,N/A,,Overcast,360,2013-02-28 20:15:00
2:35 PM,34.5,22.3,61,30.18,10.0,NNW,13.8,-,N/A,,Overcast,340,2013-02-28 20:35:00
2:55 PM,33.8,23.0,65,30.19,10.0,NNW,13.8,-,N/A,,Overcast,340,2013-02-28 20:55:00
3:15 PM,33.8,21.2,60,30.19,10.0,North,11.5,-,N/A,,Overcast,350,2013-02-28 21:15:00
3:35 PM,34.7,22.6,61,30.19,10.0,NNW,12.7,-,N/A,,Overcast,340,2013-02-28 21:35:00
3:55 PM,34.2,22.3,62,30.19,10.0,NNW,11.5,-,N/A,,Overcast,330,2013-02-28 21:55:00
4:15 PM,33.8,22.1,62,30.19,10.0,NNW,12.7,-,N/A,,Overcast,340,2013-02-28 22:15:00
4:35 PM,33.8,22.1,62,30.19,10.0,North,13.8,-,N/A,,Overcast,350,2013-02-28 22:35:00
4:55 PM,33.3,21.6,62,30.19,10.0,North,12.7,-,N/A,,Overcast,350,2013-02-28 22:55:00
5:15 PM,32.9,21.7,64,30.20,10.0,NNW,13.8,-,N/A,,Overcast,340,2013-02-28 23:15:00
5:35 PM,32.7,22.3,65,30.20,10.0,North,12.7,-,N/A,,Overcast,350,2013-02-28 23:35:00
5:55 PM,32.2,22.3,67,30.20,10.0,North,13.8,-,N/A,,Overcast,350,2013-02-28 23:55:00
6:15 PM,32.0,21.4,65,30.20,10.0,North,15.0,-,N/A,,Overcast,350,2013-03-01 00:15:00
6:35 PM,32.0,21.4,65,30.21,10.0,North,12.7,-,N/A,,Overcast,360,2013-03-01 00:35:00
6:55 PM,32.0,21.9,66,30.21,10.0,North,12.7,-,N/A,,Overcast,350,2013-03-01 00:55:00
7:15 PM,32.0,21.9,66,30.22,10.0,North,13.8,-,N/A,,Overcast,350,2013-03-01 01:15:00
7:35 PM,31.8,22.1,67,30.22,10.0,NNW,11.5,-,N/A,,Overcast,340,2013-03-01 01:35:00
7:55 PM,31.8,22.5,68,30.22,10.0,NNW,11.5,-,N/A,,Overcast,330,2013-03-01 01:55:00
8:15 PM,31.6,22.3,68,30.23,10.0,NNW,13.8,-,N/A,,Overcast,330,2013-03-01 02:15:00
8:35 PM,31.5,22.1,68,30.23,10.0,NNW,13.8,-,N/A,,Overcast,340,2013-03-01 02:35:00
8:55 PM,31.1,21.9,69,30.23,10.0,North,13.8,-,N/A,,Overcast,350,2013-03-01 02:55:00
9:15 PM,30.7,21.7,69,30.23,10.0,North,15.0,-,N/A,,Overcast,360,2013-03-01 03:15:00
9:35 PM,30.0,22.1,72,30.23,10.0,North,11.5,-,N/A,,Overcast,10,2013-03-01 03:35:00
10:15 PM,29.1,21.7,74,30.23,10.0,North,11.5,-,N/A,,Overcast,10,2013-03-01 04:15:00
10:35 PM,28.9,21.9,75,30.23,10.0,North,10.4,-,N/A,,Overcast,360,2013-03-01 04:35:00
10:55 PM,28.8,21.9,76,30.23,10.0,North,10.4,-,N/A,,Overcast,360,2013-03-01 04:55:00
11:15 PM,28.8,21.4,74,30.22,10.0,North,12.7,-,N/A,,Overcast,360,2013-03-01 05:15:00
11:35 PM,28.4,21.2,74,30.22,10.0,North,12.7,-,N/A,,Overcast,360,2013-03-01 05:35:00
11:55 PM,28.4,21.2,74,30.22,10.0,North,13.8,-,N/A,,Overcast,350,2013-03-01 05:55:00